createdAt,value
2022-09-06T00:02:12.516Z,13.90
2022-09-06T00:04:40.314Z,9.00
2022-09-06T00:07:08.142Z,9.35
2022-09-06T00:09:36.288Z,9.30
2022-09-06T00:12:04.686Z,9.63
2022-09-06T00:14:32.536Z,9.00
2022-09-06T00:17:01.829Z,11.73
2022-09-06T00:19:29.636Z,10.73
2022-09-06T00:21:57.467Z,14.50
2022-09-06T00:24:25.423Z,8.55
2022-09-06T00:26:53.192Z,9.60
2022-09-06T00:29:21.040Z,9.75
2022-09-06T00:31:48.863Z,8.90
2022-09-06T00:34:18.068Z,14.95
2022-09-06T00:36:45.841Z,12.18
2022-09-06T00:39:13.693Z,8.32
2022-09-06T00:41:41.890Z,10.43
2022-09-06T00:44:09.944Z,9.65
2022-09-06T00:46:40.789Z,10.73
2022-09-06T00:49:12.497Z,11.95
2022-09-06T00:51:42.023Z,11.63
2022-09-06T00:54:10.979Z,10.48
2022-09-06T00:56:42.880Z,7.80
2022-09-06T00:59:10.825Z,7.10
2022-09-06T01:01:38.956Z,8.45
2022-09-06T01:04:07.394Z,8.00
2022-09-06T01:06:49.257Z,7.70
2022-09-06T01:09:28.600Z,7.80
2022-09-06T01:12:11.722Z,9.13
2022-09-06T01:15:01.273Z,8.07
2022-09-06T01:17:42.685Z,7.53
2022-09-06T01:20:36.351Z,5.30
2022-09-06T01:23:44.208Z,6.95
2022-09-06T01:26:40.129Z,10.20
2022-09-06T01:29:17.089Z,8.20
2022-09-06T01:31:49.837Z,7.47
2022-09-06T01:34:25.673Z,6.78
2022-09-06T01:37:13.180Z,11.73
2022-09-06T01:39:42.570Z,7.13
2022-09-06T01:42:14.555Z,10.80
2022-09-06T01:44:47.404Z,5.43
2022-09-06T01:47:26.910Z,7.95
2022-09-06T01:50:16.035Z,10.02
2022-09-06T01:52:57.567Z,4.22
2022-09-06T01:55:32.220Z,5.43
2022-09-06T01:58:16.564Z,6.57
2022-09-06T02:00:55.734Z,5.03
2022-09-06T02:03:31.413Z,5.68
2022-09-06T02:06:05.087Z,7.45
2022-09-06T02:08:38.233Z,7.65
2022-09-06T02:11:08.356Z,6.50
2022-09-06T02:13:39.781Z,6.63
2022-09-06T02:16:11.878Z,8.70
2022-09-06T02:18:44.141Z,9.52
2022-09-06T02:21:16.349Z,7.75
2022-09-06T02:23:45.953Z,6.72
2022-09-06T02:26:18.678Z,5.40
2022-09-06T02:28:47.006Z,5.72
2022-09-06T02:31:23.414Z,6.25
2022-09-06T02:33:53.025Z,5.85
2022-09-06T02:36:21.150Z,6.95
2022-09-06T02:38:49.258Z,5.40
2022-09-06T02:41:22.570Z,8.30
2022-09-06T02:43:50.991Z,8.30
2022-09-06T02:46:20.235Z,5.55
2022-09-06T02:48:48.118Z,7.97
2022-09-06T02:51:16.015Z,5.30
2022-09-06T02:53:44.133Z,5.55
2022-09-06T02:56:12.364Z,5.68
2022-09-06T02:58:40.174Z,7.32
2022-09-06T03:01:08.257Z,4.38
2022-09-06T03:03:37.506Z,5.93
2022-09-06T03:06:05.476Z,9.30
2022-09-06T03:08:34.253Z,4.10
2022-09-06T03:11:02.605Z,6.05
2022-09-06T03:13:30.830Z,4.85
2022-09-06T03:16:00.191Z,6.53
2022-09-06T03:18:29.633Z,4.18
2022-09-06T03:20:59.604Z,6.15
2022-09-06T03:23:29.272Z,3.80
2022-09-06T03:25:57.682Z,6.13
2022-09-06T03:28:25.638Z,5.35
2022-09-06T03:30:54.426Z,4.53
2022-09-06T03:33:22.712Z,6.03
2022-09-06T03:35:51.866Z,7.00
2022-09-06T03:38:21.622Z,7.57
2022-09-06T03:40:50.451Z,6.63
2022-09-06T03:43:19.052Z,6.20
2022-09-06T03:45:48.295Z,7.18
2022-09-06T03:48:17.012Z,8.35
2022-09-06T03:50:47.178Z,7.10
2022-09-06T03:53:16.292Z,4.88
2022-09-06T03:55:47.695Z,6.07
2022-09-06T03:58:16.803Z,8.25
2022-09-06T04:00:45.371Z,5.40
2022-09-06T04:03:14.036Z,6.28
2022-09-06T04:05:45.679Z,9.68
2022-09-06T04:08:13.692Z,6.32
2022-09-06T04:10:41.512Z,7.78
2022-09-06T04:13:10.744Z,10.52
2022-09-06T04:15:38.541Z,6.65
2022-09-06T04:18:09.255Z,5.28
2022-09-06T04:20:37.292Z,7.25
2022-09-06T04:23:05.262Z,10.25
2022-09-06T04:25:33.219Z,5.22
2022-09-06T04:28:02.334Z,9.50
2022-09-06T04:30:31.525Z,10.25
2022-09-06T04:32:59.370Z,10.85
2022-09-06T04:35:27.240Z,9.40
2022-09-06T04:37:55.093Z,11.48
2022-09-06T04:40:22.945Z,5.55
2022-09-06T04:42:50.808Z,10.60
2022-09-06T04:45:18.687Z,8.93
2022-09-06T04:47:48.153Z,7.05
2022-09-06T04:50:15.947Z,6.07
2022-09-06T04:52:43.821Z,7.55
2022-09-06T04:55:11.683Z,6.63
2022-09-06T04:57:43.746Z,5.93
2022-09-06T05:00:14.551Z,5.18
2022-09-06T05:02:42.597Z,7.18
2022-09-06T05:05:12.386Z,7.78
2022-09-06T05:07:40.209Z,7.07
2022-09-06T05:10:08.386Z,10.98
2022-09-06T05:12:39.772Z,8.38
2022-09-06T05:15:10.948Z,7.55
2022-09-06T05:17:38.764Z,5.53
2022-09-06T05:20:07.355Z,8.65
2022-09-06T05:22:36.508Z,6.15
2022-09-06T05:25:04.532Z,5.50
2022-09-06T05:27:32.313Z,12.48
2022-09-06T05:30:00.138Z,7.88
2022-09-06T05:32:27.994Z,6.57
2022-09-06T05:34:55.845Z,13.25
2022-09-06T05:37:23.738Z,8.57
2022-09-06T05:39:53.139Z,8.50
2022-09-06T05:42:21.049Z,8.02
2022-09-06T05:44:48.871Z,8.82
2022-09-06T05:47:16.664Z,11.23
2022-09-06T05:49:44.498Z,5.85
2022-09-06T05:52:12.296Z,8.75
2022-09-06T05:54:40.089Z,8.10
2022-09-06T05:57:09.212Z,9.40
2022-09-06T05:59:37.240Z,9.20
2022-09-06T06:02:07.515Z,7.88
2022-09-06T06:04:35.846Z,11.05
2022-09-06T06:07:03.629Z,10.95
2022-09-06T06:09:31.578Z,11.65
2022-09-06T06:11:59.343Z,9.32
2022-09-06T06:14:28.495Z,9.02
2022-09-06T06:16:58.072Z,12.93
2022-09-06T06:19:26.666Z,8.50
2022-09-06T06:21:55.883Z,7.55
2022-09-06T06:24:23.739Z,8.88
2022-09-06T06:26:51.577Z,9.00
2022-09-06T06:29:19.598Z,11.88
2022-09-06T06:31:48.814Z,10.02
2022-09-06T06:34:18.212Z,9.68
2022-09-06T06:36:46.066Z,10.68
2022-09-06T06:39:14.090Z,9.82
2022-09-06T06:41:41.928Z,8.23
2022-09-06T06:44:09.748Z,9.40
2022-09-06T06:46:39.321Z,10.35
2022-09-06T06:49:08.547Z,7.38
2022-09-06T06:51:37.995Z,10.85
2022-09-06T06:54:06.745Z,10.25
2022-09-06T06:56:36.436Z,7.15
2022-09-06T06:59:06.921Z,7.70
2022-09-06T07:01:36.104Z,8.63
2022-09-06T07:04:04.612Z,9.68
2022-09-06T07:12:24.961Z,9.70
2022-09-06T07:14:53.100Z,6.43
2022-09-06T07:17:20.903Z,9.77
2022-09-06T07:22:37.940Z,8.88
2022-09-06T07:25:06.705Z,6.00
2022-09-06T07:27:50.498Z,6.18
2022-09-06T07:30:19.905Z,9.48
2022-09-06T07:32:47.941Z,6.10
2022-09-06T07:35:15.981Z,7.57
2022-09-06T07:37:45.185Z,5.65
2022-09-06T07:40:13.054Z,6.07
2022-09-06T07:42:40.933Z,6.18
2022-09-06T07:45:10.025Z,7.30
2022-09-06T07:53:20.500Z,4.95
2022-09-06T07:55:53.942Z,5.72
2022-09-06T07:58:22.859Z,6.22
2022-09-06T08:00:50.722Z,3.08
2022-09-06T08:03:18.600Z,4.93
2022-09-06T08:11:29.948Z,3.60
2022-09-06T08:13:59.072Z,8.07
2022-09-06T08:16:29.220Z,4.03
2022-09-06T08:18:58.481Z,3.55
2022-09-06T08:21:28.066Z,3.42
2022-09-06T08:24:00.173Z,4.20
2022-09-06T08:26:28.969Z,4.25
2022-09-06T08:29:00.023Z,4.78
2022-09-06T08:31:29.517Z,4.70
2022-09-06T08:33:58.191Z,3.10
2022-09-06T08:36:27.396Z,3.15
2022-09-06T08:38:55.448Z,5.93
2022-09-06T08:41:27.944Z,3.42
2022-09-06T08:46:53.750Z,6.30
2022-09-06T08:49:22.307Z,2.95
2022-09-06T08:52:07.277Z,3.85
2022-09-06T08:54:39.606Z,7.75
2022-09-06T08:57:16.935Z,3.88
2022-09-06T08:59:44.768Z,4.45
2022-09-06T09:02:15.169Z,3.25
2022-09-06T09:04:46.724Z,6.22
2022-09-06T09:07:31.197Z,4.97
2022-09-06T09:10:01.202Z,5.38
2022-09-06T09:12:33.856Z,5.15
2022-09-06T09:15:08.812Z,5.65
2022-09-06T09:17:37.598Z,5.50
2022-09-06T09:20:08.405Z,3.85
2022-09-06T09:22:36.592Z,3.75
2022-09-06T09:25:07.896Z,4.53
2022-09-06T09:27:37.980Z,3.05
2022-09-06T09:32:56.666Z,2.50
2022-09-06T09:35:32.584Z,5.55
2022-09-06T09:38:11.740Z,6.78
2022-09-06T09:40:42.899Z,4.05
2022-09-06T09:43:17.297Z,7.90
2022-09-06T09:45:45.664Z,5.07
2022-09-06T09:48:25.116Z,2.55
2022-09-06T09:50:52.967Z,3.35
2022-09-06T09:53:22.617Z,3.88
2022-09-06T09:55:55.776Z,3.40
2022-09-06T09:58:33.412Z,5.10
2022-09-06T10:01:13.561Z,5.78
2022-09-06T10:09:21.833Z,3.95
2022-09-06T10:11:55.482Z,3.47
2022-09-06T10:14:30.962Z,4.00
2022-09-06T10:17:00.881Z,7.63
2022-09-06T10:19:41.963Z,3.50
2022-09-06T10:22:30.044Z,5.90
2022-09-06T10:25:26.059Z,6.82
2022-09-06T10:28:12.597Z,7.07
2022-09-06T10:30:53.276Z,7.65
2022-09-06T10:33:32.260Z,5.50
2022-09-06T10:36:03.056Z,3.30
2022-09-06T10:38:42.138Z,4.57
2022-09-06T10:41:43.442Z,5.70
2022-09-06T10:44:27.591Z,3.55
2022-09-06T10:47:09.550Z,4.95
2022-09-06T10:49:39.111Z,4.45
2022-09-06T10:52:10.564Z,3.63
2022-09-06T10:54:42.230Z,5.10
2022-09-06T11:00:12.912Z,6.50
2022-09-06T11:05:42.962Z,6.32
2022-09-06T11:11:12.343Z,4.22
2022-09-06T11:13:40.239Z,9.75
2022-09-06T11:16:11.366Z,6.25
2022-09-06T11:18:47.276Z,4.93
2022-09-06T11:21:43.773Z,6.05
2022-09-06T11:24:17.004Z,6.72
2022-09-06T11:26:47.024Z,6.40
2022-09-06T11:29:26.661Z,5.97
2022-09-06T11:34:54.900Z,6.75
2022-09-06T11:37:28.349Z,20.27
2022-09-06T11:40:29.402Z,11.77
2022-09-06T11:43:16.694Z,5.38
2022-09-06T11:45:47.797Z,12.23
2022-09-06T11:48:50.772Z,6.72
2022-09-06T11:51:36.258Z,13.23
2022-09-06T11:54:21.987Z,8.88
2022-09-06T11:56:58.927Z,5.05
2022-09-06T11:59:35.536Z,4.13
2022-09-06T12:02:05.621Z,9.52
2022-09-06T12:05:16.069Z,2.85
2022-09-06T12:08:24.577Z,8.57
2022-09-06T12:10:59.892Z,4.25
2022-09-06T12:13:48.496Z,4.40
2022-09-06T12:16:18.457Z,8.48
2022-09-06T12:19:10.512Z,5.95
2022-09-06T12:21:52.115Z,10.30
2022-09-06T12:24:56.748Z,3.72
2022-09-06T12:27:27.031Z,16.15
2022-09-06T12:29:59.466Z,5.50
2022-09-06T12:32:36.593Z,7.25
2022-09-06T12:37:57.013Z,11.35
2022-09-06T12:40:28.453Z,11.25
2022-09-06T12:42:56.793Z,5.82
2022-09-06T12:45:27.565Z,14.20
2022-09-06T12:48:06.388Z,6.38
2022-09-06T12:50:34.276Z,17.50
2022-09-06T12:53:04.200Z,8.30
2022-09-06T12:55:36.549Z,7.30
2022-09-06T12:58:06.531Z,4.88
2022-09-06T13:00:37.914Z,3.90
2022-09-06T13:03:25.018Z,3.95
2022-09-06T13:05:55.713Z,4.45
2022-09-06T13:08:30.542Z,7.30
2022-09-06T13:11:00.537Z,5.40
2022-09-06T13:13:28.770Z,4.60
2022-09-06T13:15:57.327Z,4.68
2022-09-06T13:18:33.054Z,5.90
2022-09-06T13:21:03.144Z,6.88
2022-09-06T13:23:32.730Z,4.50
2022-09-06T13:26:02.233Z,5.15
2022-09-06T13:28:32.076Z,2.80
2022-09-06T13:31:05.277Z,2.65
2022-09-06T13:33:34.049Z,2.90
2022-09-06T13:36:17.596Z,4.18
2022-09-06T13:38:47.049Z,4.68
2022-09-06T13:41:37.465Z,2.55
2022-09-06T13:44:07.970Z,2.67
2022-09-06T13:46:37.267Z,3.03
2022-09-06T13:49:06.137Z,2.42
2022-09-06T13:51:35.431Z,3.53
2022-09-06T13:54:07.876Z,6.05
2022-09-06T13:56:37.691Z,2.55
2022-09-06T13:59:05.699Z,3.90
2022-09-06T14:01:34.453Z,4.53
2022-09-06T14:04:03.534Z,3.28
2022-09-06T14:06:36.083Z,2.20
2022-09-06T14:09:07.731Z,2.65
2022-09-06T14:11:37.939Z,2.55
2022-09-06T14:14:06.077Z,3.75
2022-09-06T14:16:34.997Z,3.95
2022-09-06T14:19:03.137Z,4.10
2022-09-06T14:21:31.080Z,2.65
2022-09-06T14:24:03.885Z,3.25
2022-09-06T14:26:33.308Z,5.10
2022-09-06T14:29:02.828Z,3.50
2022-09-06T14:31:32.505Z,4.25
2022-09-06T14:34:02.072Z,2.85
2022-09-06T14:36:32.385Z,2.13
2022-09-06T14:39:01.490Z,3.40
2022-09-06T14:41:29.599Z,2.58
2022-09-06T14:43:58.829Z,3.75
2022-09-06T14:46:29.895Z,3.15
2022-09-06T14:48:59.551Z,2.80
2022-09-06T14:51:27.635Z,4.38
2022-09-06T14:53:57.310Z,2.85
2022-09-06T14:56:27.135Z,5.60
2022-09-06T14:58:57.971Z,7.45
2022-09-06T15:01:30.402Z,3.67
2022-09-06T15:04:03.280Z,3.75
2022-09-06T15:06:34.715Z,2.67
2022-09-06T15:09:02.753Z,2.53
2022-09-06T15:11:34.754Z,1.83
2022-09-06T15:14:04.016Z,5.30
2022-09-06T15:16:34.332Z,2.53
2022-09-06T15:19:02.942Z,3.28
2022-09-06T15:21:32.053Z,4.68
2022-09-06T15:24:00.197Z,4.55
2022-09-06T15:26:28.150Z,1.80
2022-09-06T15:28:56.283Z,3.92
2022-09-06T15:31:24.337Z,4.35
2022-09-06T15:33:53.946Z,2.30
2022-09-06T15:36:22.023Z,2.25
2022-09-06T15:38:50.912Z,4.80
2022-09-06T15:41:21.062Z,3.05
2022-09-06T15:43:51.087Z,3.22
2022-09-06T15:46:22.204Z,8.05
2022-09-06T15:48:53.614Z,3.33
2022-09-06T15:51:22.913Z,1.85
2022-09-06T15:53:50.829Z,2.40
2022-09-06T15:56:19.785Z,3.00
2022-09-06T15:58:48.010Z,3.15
2022-09-06T16:01:17.735Z,3.42
2022-09-06T16:03:47.494Z,3.03
2022-09-06T16:06:26.726Z,6.07
2022-09-06T16:08:59.743Z,3.17
2022-09-06T16:11:29.136Z,2.60
2022-09-06T16:13:57.637Z,2.13
2022-09-06T16:16:25.803Z,2.95
2022-09-06T16:18:53.901Z,3.15
2022-09-06T16:21:24.285Z,2.03
2022-09-06T16:23:54.597Z,4.10
2022-09-06T16:26:25.738Z,1.67
2022-09-06T16:28:54.381Z,5.63
2022-09-06T16:31:23.093Z,2.35
2022-09-06T16:33:53.871Z,4.93
2022-09-06T16:36:22.775Z,5.00
2022-09-06T16:38:51.077Z,3.50
2022-09-06T16:41:21.964Z,2.35
2022-09-06T16:43:52.363Z,3.45
2022-09-06T16:46:21.106Z,2.28
2022-09-06T16:48:52.404Z,2.95
2022-09-06T16:51:22.193Z,2.25
2022-09-06T16:53:50.954Z,2.08
2022-09-06T16:56:21.586Z,2.25
2022-09-06T16:58:53.228Z,2.80
2022-09-06T17:01:21.953Z,3.17
2022-09-06T17:03:50.280Z,3.75
2022-09-06T17:06:19.182Z,2.60
2022-09-06T17:08:47.584Z,5.85
2022-09-06T17:11:17.917Z,5.75
2022-09-06T17:13:49.895Z,7.82
2022-09-06T17:16:37.465Z,5.57
2022-09-06T17:19:07.011Z,4.45
2022-09-06T17:21:35.566Z,6.70
2022-09-06T17:24:05.630Z,9.32
2022-09-06T17:26:35.021Z,7.32
2022-09-06T17:29:03.273Z,9.88
2022-09-06T17:31:33.357Z,11.90
2022-09-06T17:34:01.818Z,7.78
2022-09-06T17:36:32.270Z,9.77
2022-09-06T17:39:04.967Z,8.30
2022-09-06T17:41:38.885Z,13.82
2022-09-06T17:44:09.811Z,4.90
2022-09-06T17:46:51.891Z,10.13
2022-09-06T17:49:26.149Z,10.82
2022-09-06T17:51:54.354Z,9.25
2022-09-06T17:54:22.263Z,10.15
2022-09-06T17:56:50.120Z,8.80
2022-09-06T17:59:18.019Z,5.70
2022-09-06T18:01:47.374Z,10.95
2022-09-06T18:04:16.176Z,19.25
2022-09-06T18:06:46.739Z,41.22
2022-09-06T18:09:17.855Z,65.20
2022-09-06T18:11:47.082Z,52.55
2022-09-06T18:14:17.847Z,47.50
2022-09-06T18:16:49.465Z,27.27
2022-09-06T18:19:18.799Z,28.70
2022-09-06T18:21:49.004Z,14.85
2022-09-06T18:24:17.052Z,39.00
2022-09-06T18:26:45.116Z,45.55
2022-09-06T18:29:14.963Z,39.85
2022-09-06T18:31:44.418Z,44.67
2022-09-06T18:34:13.782Z,54.30
2022-09-06T18:36:42.311Z,65.85
2022-09-06T18:39:11.301Z,32.97
2022-09-06T18:41:56.668Z,29.35
2022-09-06T18:44:24.703Z,24.83
2022-09-06T18:46:55.780Z,17.40
2022-09-06T18:49:26.117Z,11.32
2022-09-06T18:51:54.550Z,26.50
2022-09-06T18:54:23.098Z,22.63
2022-09-06T18:56:51.100Z,38.00
2022-09-06T18:59:19.356Z,27.83
2022-09-06T19:01:47.270Z,18.10
2022-09-06T19:04:15.435Z,11.50
2022-09-06T19:06:45.823Z,6.25
2022-09-06T19:09:15.733Z,8.15
2022-09-06T19:11:45.596Z,15.88
2022-09-06T19:14:14.397Z,12.57
2022-09-06T19:16:43.931Z,12.55
2022-09-06T19:19:13.437Z,9.88
2022-09-06T19:21:42.524Z,7.82
2022-09-06T19:24:14.608Z,12.93
2022-09-06T19:26:44.630Z,4.68
2022-09-06T19:29:15.888Z,8.63
2022-09-06T19:31:44.351Z,7.40
2022-09-06T19:34:15.331Z,9.75
2022-09-06T19:36:44.388Z,9.18
2022-09-06T19:39:15.396Z,8.90
2022-09-06T19:41:45.152Z,10.07
2022-09-06T19:44:13.825Z,6.45
2022-09-06T19:46:45.651Z,10.05
2022-09-06T19:49:14.567Z,9.32
2022-09-06T19:51:43.912Z,4.50
2022-09-06T19:54:15.553Z,12.30
2022-09-06T19:56:44.254Z,9.38
2022-09-06T19:59:13.410Z,8.20
2022-09-06T20:01:43.198Z,12.90
2022-09-06T20:04:12.859Z,11.68
2022-09-06T20:06:41.511Z,6.45
2022-09-06T20:09:10.762Z,11.85
2022-09-06T20:11:41.690Z,8.68
2022-09-06T20:14:09.986Z,11.50
2022-09-06T20:16:41.413Z,4.78
2022-09-06T20:19:14.492Z,6.55
2022-09-06T20:21:42.957Z,7.30
2022-09-06T20:24:11.085Z,5.75
2022-09-06T20:26:40.437Z,8.32
2022-09-06T20:29:08.593Z,10.50
2022-09-06T20:31:38.184Z,8.23
2022-09-06T20:34:07.412Z,5.50
2022-09-06T20:36:35.291Z,6.88
2022-09-06T20:39:03.305Z,9.07
2022-09-06T20:41:31.307Z,7.55
2022-09-06T20:44:01.234Z,6.93
2022-09-06T20:46:31.059Z,5.78
2022-09-06T20:49:03.644Z,6.13
2022-09-06T20:51:32.327Z,6.10
2022-09-06T20:54:01.533Z,4.80
2022-09-06T20:56:31.963Z,6.35
2022-09-06T20:59:02.603Z,8.10
2022-09-06T21:01:33.455Z,8.60
2022-09-06T21:04:03.305Z,6.03
2022-09-06T21:06:33.769Z,7.63
2022-09-06T21:09:02.132Z,6.05
2022-09-06T21:11:30.065Z,8.70
2022-09-06T21:13:59.099Z,10.40
2022-09-06T21:16:30.359Z,4.82
2022-09-06T21:19:00.563Z,6.65
2022-09-06T21:21:30.150Z,10.25
2022-09-06T21:23:58.033Z,6.32
2022-09-06T21:26:26.509Z,8.95
2022-09-06T21:28:54.394Z,5.68
2022-09-06T21:31:24.324Z,4.75
2022-09-06T21:33:55.257Z,3.95
2022-09-06T21:36:24.770Z,5.80
2022-09-06T21:38:55.421Z,4.18
2022-09-06T21:41:24.483Z,6.38
2022-09-06T21:43:53.768Z,5.57
2022-09-06T21:46:23.140Z,4.53
2022-09-06T21:48:54.011Z,2.53
2022-09-06T21:51:23.980Z,2.53
2022-09-06T21:53:52.977Z,3.17
2022-09-06T21:56:23.823Z,4.53
2022-09-06T21:58:52.703Z,2.70
2022-09-06T22:01:20.806Z,4.65
2022-09-06T22:03:48.893Z,2.65
2022-09-06T22:06:20.053Z,3.03
2022-09-06T22:08:48.661Z,3.30
2022-09-06T22:11:18.726Z,2.83
2022-09-06T22:13:47.926Z,5.40
2022-09-06T22:16:18.486Z,3.83
2022-09-06T22:18:47.740Z,4.70
2022-09-06T22:21:20.319Z,2.60
2022-09-06T22:23:52.194Z,4.00
2022-09-06T22:26:21.043Z,2.58
2022-09-06T22:28:49.400Z,2.53
2022-09-06T22:31:17.356Z,2.70
2022-09-06T22:33:45.326Z,3.38
2022-09-06T22:36:13.213Z,3.72
2022-09-06T22:38:42.477Z,2.72
2022-09-06T22:41:10.573Z,3.03
2022-09-06T22:43:38.421Z,3.47
2022-09-06T22:46:08.445Z,3.25
2022-09-06T22:48:37.102Z,4.45
2022-09-06T22:51:07.179Z,3.75
2022-09-06T22:53:35.484Z,2.63
2022-09-06T22:56:05.434Z,3.40
2022-09-06T22:58:34.588Z,5.10
2022-09-06T23:01:08.079Z,8.82
2022-09-06T23:03:36.851Z,2.95
2022-09-06T23:06:05.296Z,3.47
2022-09-06T23:08:34.625Z,2.28
2022-09-06T23:11:07.909Z,4.28
2022-09-06T23:13:36.144Z,3.25
2022-09-06T23:16:05.826Z,2.95
2022-09-06T23:18:33.931Z,3.67
2022-09-06T23:21:06.472Z,3.80
2022-09-06T23:23:34.854Z,3.60
2022-09-06T23:26:09.587Z,3.40
2022-09-06T23:28:38.154Z,4.18
2022-09-06T23:31:07.265Z,3.75
2022-09-06T23:33:37.387Z,156.82
2022-09-06T23:36:06.187Z,73.68
2022-09-06T23:38:34.716Z,32.22
2022-09-06T23:41:02.876Z,33.20
2022-09-06T23:43:32.191Z,15.75
2022-09-06T23:46:00.249Z,7.25
2022-09-06T23:48:28.296Z,5.28
2022-09-06T23:50:56.169Z,2.80
2022-09-06T23:53:24.255Z,4.38
2022-09-06T23:55:52.189Z,3.17
2022-09-06T23:58:20.450Z,2.97
